createdAt,value
2018-05-15T00:00:07.479Z,990.56
2018-05-15T00:01:07.511Z,990.59
2018-05-15T00:02:07.547Z,990.52
2018-05-15T00:03:07.582Z,990.53
2018-05-15T00:04:07.612Z,990.56
2018-05-15T00:05:07.648Z,990.48
2018-05-15T00:06:07.680Z,990.53
2018-05-15T00:07:07.712Z,990.50
2018-05-15T00:08:07.745Z,990.51
2018-05-15T00:09:07.779Z,990.53
2018-05-15T00:10:07.813Z,990.53
2018-05-15T00:11:07.849Z,990.53
2018-05-15T00:12:07.878Z,990.51
2018-05-15T00:13:07.911Z,990.53
2018-05-15T00:14:07.946Z,990.52
2018-05-15T00:15:07.979Z,990.57
2018-05-15T00:16:08.011Z,990.57
2018-05-15T00:17:08.046Z,990.56
2018-05-15T00:18:08.078Z,990.61
2018-05-15T00:19:08.113Z,990.59
2018-05-15T00:20:08.151Z,990.59
2018-05-15T00:21:08.179Z,990.54
2018-05-15T00:22:08.213Z,990.51
2018-05-15T00:23:08.246Z,990.50
2018-05-15T00:24:08.278Z,990.50
2018-05-15T00:25:08.312Z,990.46
2018-05-15T00:26:08.345Z,990.50
2018-05-15T00:27:08.380Z,990.48
2018-05-15T00:28:08.411Z,990.51
2018-05-15T00:29:08.447Z,990.50
2018-05-15T00:30:08.480Z,990.47
2018-05-15T00:31:08.517Z,990.48
2018-05-15T00:32:08.546Z,990.42
2018-05-15T00:33:08.580Z,990.42
2018-05-15T00:34:08.613Z,990.39
2018-05-15T00:35:08.647Z,990.39
2018-05-15T00:36:08.681Z,990.41
2018-05-15T00:37:08.713Z,990.41
2018-05-15T00:38:08.747Z,990.37
2018-05-15T00:39:08.780Z,990.38
2018-05-15T00:40:08.813Z,990.41
2018-05-15T00:41:08.850Z,990.40
2018-05-15T00:42:08.880Z,990.42
2018-05-15T00:43:08.915Z,990.41
2018-05-15T00:44:08.970Z,990.45
2018-05-15T00:45:08.980Z,990.41
2018-05-15T00:46:09.017Z,990.41
2018-05-15T00:47:09.049Z,990.40
2018-05-15T00:48:09.080Z,990.38
2018-05-15T00:49:09.115Z,990.38
2018-05-15T00:50:09.147Z,990.40
2018-05-15T00:51:09.182Z,990.41
2018-05-15T00:52:09.215Z,990.39
2018-05-15T00:53:09.247Z,990.41
2018-05-15T00:54:09.283Z,990.44
2018-05-15T00:55:09.319Z,990.43
2018-05-15T00:56:09.347Z,990.46
2018-05-15T00:57:09.383Z,990.46
2018-05-15T00:58:09.420Z,990.46
2018-05-15T00:59:09.450Z,990.49
2018-05-15T01:00:09.483Z,990.47
2018-05-15T01:01:09.517Z,990.45
2018-05-15T01:02:09.553Z,990.51
2018-05-15T01:03:09.584Z,990.51
2018-05-15T01:04:09.617Z,990.53
2018-05-15T01:05:09.654Z,990.56
2018-05-15T01:06:09.684Z,990.61
2018-05-15T01:07:09.718Z,990.57
2018-05-15T01:08:09.750Z,990.61
2018-05-15T01:09:09.784Z,990.65
2018-05-15T01:10:09.821Z,990.66
2018-05-15T01:11:09.854Z,990.68
2018-05-15T01:12:09.886Z,990.64
2018-05-15T01:13:09.920Z,990.66
2018-05-15T01:14:09.954Z,990.65
2018-05-15T01:15:09.987Z,990.64
2018-05-15T01:16:10.021Z,990.64
2018-05-15T01:17:10.057Z,990.65
2018-05-15T01:18:10.091Z,990.65
2018-05-15T01:19:10.122Z,990.65
2018-05-15T01:20:10.155Z,990.65
2018-05-15T01:21:10.190Z,990.62
2018-05-15T01:22:10.223Z,990.65
2018-05-15T01:23:10.256Z,990.58
2018-05-15T01:24:10.288Z,990.63
2018-05-15T01:25:10.323Z,990.64
2018-05-15T01:26:10.357Z,990.58
2018-05-15T01:27:10.390Z,990.60
2018-05-15T01:28:10.424Z,990.61
2018-05-15T01:29:10.459Z,990.63
2018-05-15T01:30:10.491Z,990.62
2018-05-15T01:31:10.525Z,990.66
2018-05-15T01:32:10.557Z,990.58
2018-05-15T01:33:10.591Z,990.63
2018-05-15T01:34:10.625Z,990.61
2018-05-15T01:35:10.657Z,990.62
2018-05-15T01:36:10.691Z,990.65
2018-05-15T01:37:10.808Z,990.62
2018-05-15T01:38:10.759Z,990.63
2018-05-15T01:39:10.793Z,990.60
2018-05-15T01:40:10.826Z,990.60
2018-05-15T01:41:10.859Z,990.64
2018-05-15T01:42:10.893Z,990.67
2018-05-15T01:43:10.927Z,990.67
2018-05-15T01:44:10.961Z,990.66
2018-05-15T01:45:10.998Z,990.65
2018-05-15T01:46:11.027Z,990.73
2018-05-15T01:47:11.060Z,990.66
2018-05-15T01:48:11.094Z,990.64
2018-05-15T01:49:11.128Z,990.66
2018-05-15T01:50:11.160Z,990.63
2018-05-15T01:51:11.194Z,990.60
2018-05-15T01:52:11.227Z,990.56
2018-05-15T01:53:11.261Z,990.57
2018-05-15T01:54:11.297Z,990.56
2018-05-15T01:55:11.328Z,990.56
2018-05-15T01:56:11.359Z,990.57
2018-05-15T01:57:11.393Z,990.54
2018-05-15T01:58:11.428Z,990.54
2018-05-15T01:59:11.466Z,990.57
2018-05-15T02:00:11.496Z,990.58
2018-05-15T02:01:11.526Z,990.56
2018-05-15T02:02:11.560Z,990.56
2018-05-15T02:03:11.596Z,990.56
2018-05-15T02:04:11.631Z,990.58
2018-05-15T02:05:11.660Z,990.60
2018-05-15T02:06:11.707Z,990.57
2018-05-15T02:07:11.729Z,990.59
2018-05-15T02:08:11.762Z,990.56
2018-05-15T02:09:11.794Z,990.58
2018-05-15T02:10:11.830Z,990.58
2018-05-15T02:11:11.862Z,990.59
2018-05-15T02:12:11.895Z,990.63
2018-05-15T02:13:11.929Z,990.60
2018-05-15T02:14:11.962Z,990.59
2018-05-15T02:15:11.997Z,990.59
2018-05-15T02:16:12.084Z,990.61
2018-05-15T02:17:12.063Z,990.63
2018-05-15T02:18:12.097Z,990.62
2018-05-15T02:19:12.131Z,990.62
2018-05-15T02:20:12.162Z,990.61
2018-05-15T02:21:12.197Z,990.63
2018-05-15T02:22:12.230Z,990.63
2018-05-15T02:23:12.264Z,990.62
2018-05-15T02:24:12.298Z,990.65
2018-05-15T02:25:12.331Z,990.62
2018-05-15T02:26:12.366Z,990.61
2018-05-15T02:27:12.398Z,990.59
2018-05-15T02:28:12.435Z,990.58
2018-05-15T02:29:12.464Z,990.55
2018-05-15T02:30:12.499Z,990.53
2018-05-15T02:31:12.533Z,990.53
2018-05-15T02:32:12.572Z,990.52
2018-05-15T02:33:12.599Z,990.49
2018-05-15T02:34:12.632Z,990.51
2018-05-15T02:35:12.667Z,990.50
2018-05-15T02:36:12.701Z,990.52
2018-05-15T02:37:12.735Z,990.53
2018-05-15T02:38:12.767Z,990.53
2018-05-15T02:39:12.800Z,990.54
2018-05-15T02:40:12.834Z,990.53
2018-05-15T02:41:12.868Z,990.54
2018-05-15T02:42:12.902Z,990.54
2018-05-15T02:43:12.935Z,990.56
2018-05-15T02:44:12.971Z,990.59
2018-05-15T02:45:13.006Z,990.58
2018-05-15T02:46:13.035Z,990.62
2018-05-15T02:47:13.070Z,990.57
2018-05-15T02:48:13.107Z,990.60
2018-05-15T02:49:13.136Z,990.58
2018-05-15T02:50:13.168Z,990.56
2018-05-15T02:51:13.202Z,990.53
2018-05-15T02:52:13.237Z,990.57
2018-05-15T02:53:13.271Z,990.57
2018-05-15T02:54:13.304Z,990.59
2018-05-15T02:55:13.338Z,990.62
2018-05-15T02:56:13.368Z,990.62
2018-05-15T02:57:13.404Z,990.64
2018-05-15T02:58:13.441Z,990.60
2018-05-15T02:59:13.471Z,990.66
2018-05-15T03:00:13.503Z,990.65
2018-05-15T03:01:13.538Z,990.59
2018-05-15T03:02:13.570Z,990.63
2018-05-15T03:03:13.608Z,990.60
2018-05-15T03:04:13.639Z,990.58
2018-05-15T03:05:13.672Z,990.57
2018-05-15T03:06:13.705Z,990.58
2018-05-15T03:07:13.740Z,990.58
2018-05-15T03:08:13.772Z,990.57
2018-05-15T03:09:13.808Z,990.57
2018-05-15T03:10:13.839Z,990.64
2018-05-15T03:11:13.872Z,990.67
2018-05-15T03:12:13.904Z,990.68
2018-05-15T03:13:13.942Z,990.73
2018-05-15T03:14:13.972Z,990.73
2018-05-15T03:15:14.007Z,990.70
2018-05-15T03:16:14.041Z,990.75
2018-05-15T03:17:14.073Z,990.70
2018-05-15T03:18:14.106Z,990.71
2018-05-15T03:19:14.140Z,990.69
2018-05-15T03:20:14.173Z,990.74
2018-05-15T03:21:14.207Z,990.74
2018-05-15T03:22:14.240Z,990.73
2018-05-15T03:23:14.277Z,990.76
2018-05-15T03:24:14.308Z,990.76
2018-05-15T03:25:14.340Z,990.77
2018-05-15T03:26:14.374Z,990.74
2018-05-15T03:27:14.409Z,990.75
2018-05-15T03:28:14.443Z,990.75
2018-05-15T03:29:14.475Z,990.76
2018-05-15T03:30:14.508Z,990.77
2018-05-15T03:31:14.545Z,990.76
2018-05-15T03:32:14.574Z,990.77
2018-05-15T03:33:14.635Z,990.77
2018-05-15T03:34:14.643Z,990.81
2018-05-15T03:35:14.675Z,990.80
2018-05-15T03:36:14.709Z,990.82
2018-05-15T03:37:14.743Z,990.84
2018-05-15T03:38:14.776Z,990.77
2018-05-15T03:39:14.809Z,990.80
2018-05-15T03:40:14.843Z,990.82
2018-05-15T03:41:14.876Z,990.81
2018-05-15T03:42:14.910Z,990.81
2018-05-15T03:43:14.944Z,990.80
2018-05-15T03:44:14.977Z,990.77
2018-05-15T03:45:15.010Z,990.77
2018-05-15T03:46:15.044Z,990.80
2018-05-15T03:47:15.078Z,990.82
2018-05-15T03:48:15.110Z,990.78
2018-05-15T03:49:15.144Z,990.80
2018-05-15T03:50:15.178Z,990.77
2018-05-15T03:51:15.211Z,990.77
2018-05-15T03:52:15.248Z,990.79
2018-05-15T03:53:15.278Z,990.81
2018-05-15T03:54:15.311Z,990.84
2018-05-15T03:55:15.347Z,990.82
2018-05-15T03:56:15.378Z,990.83
2018-05-15T03:57:15.411Z,990.85
2018-05-15T03:58:15.445Z,990.85
2018-05-15T03:59:15.479Z,990.89
2018-05-15T04:00:15.512Z,990.89
2018-05-15T04:01:15.545Z,990.91
2018-05-15T04:02:15.673Z,990.93
2018-05-15T04:03:15.612Z,990.96
2018-05-15T04:04:15.645Z,990.97
2018-05-15T04:05:15.681Z,991.00
2018-05-15T04:06:15.713Z,991.03
2018-05-15T04:07:15.746Z,990.97
2018-05-15T04:08:15.777Z,990.98
2018-05-15T04:09:15.813Z,991.01
2018-05-15T04:10:15.846Z,991.00
2018-05-15T04:11:15.880Z,990.99
2018-05-15T04:12:15.913Z,990.97
2018-05-15T04:13:15.946Z,990.99
2018-05-15T04:14:15.981Z,991.03
2018-05-15T04:15:16.014Z,991.03
2018-05-15T04:16:16.047Z,991.07
2018-05-15T04:17:16.083Z,991.08
2018-05-15T04:18:16.117Z,991.11
2018-05-15T04:19:16.149Z,991.17
2018-05-15T04:20:16.181Z,991.11
2018-05-15T04:21:16.216Z,991.09
2018-05-15T04:22:16.250Z,991.11
2018-05-15T04:23:16.283Z,991.12
2018-05-15T04:24:16.316Z,991.10
2018-05-15T04:25:16.349Z,991.14
2018-05-15T04:26:16.383Z,991.13
2018-05-15T04:27:16.417Z,991.15
2018-05-15T04:28:16.497Z,991.18
2018-05-15T04:29:16.483Z,991.17
2018-05-15T04:30:16.523Z,991.15
2018-05-15T04:31:16.553Z,991.17
2018-05-15T04:32:16.585Z,991.22
2018-05-15T04:33:16.619Z,991.25
2018-05-15T04:34:16.652Z,991.25
2018-05-15T04:35:16.755Z,991.29
2018-05-15T04:36:16.720Z,991.27
2018-05-15T04:37:16.756Z,991.32
2018-05-15T04:38:16.788Z,991.28
2018-05-15T04:39:16.822Z,991.27
2018-05-15T04:40:16.857Z,991.31
2018-05-15T04:41:16.887Z,991.30
2018-05-15T04:42:16.922Z,991.30
2018-05-15T04:43:16.955Z,991.32
2018-05-15T04:44:16.988Z,991.35
2018-05-15T04:45:17.024Z,991.27
2018-05-15T04:46:17.056Z,991.35
2018-05-15T04:47:17.091Z,991.34
2018-05-15T04:48:17.122Z,991.33
2018-05-15T04:49:17.231Z,991.34
2018-05-15T04:50:17.191Z,991.36
2018-05-15T04:51:17.224Z,991.36
2018-05-15T04:52:17.257Z,991.40
2018-05-15T04:53:17.290Z,991.39
2018-05-15T04:54:17.325Z,991.40
2018-05-15T04:55:17.359Z,991.40
2018-05-15T04:56:17.390Z,991.41
2018-05-15T04:57:17.424Z,991.40
2018-05-15T04:58:17.458Z,991.45
2018-05-15T04:59:17.496Z,991.46
2018-05-15T05:00:17.527Z,991.44
2018-05-15T05:01:17.560Z,991.44
2018-05-15T05:02:17.593Z,991.45
2018-05-15T05:03:17.627Z,991.43
2018-05-15T05:04:17.660Z,991.44
2018-05-15T05:05:17.695Z,991.46
2018-05-15T05:06:17.727Z,991.47
2018-05-15T05:07:17.760Z,991.47
2018-05-15T05:08:17.797Z,991.51
2018-05-15T05:09:17.828Z,991.51
2018-05-15T05:10:17.862Z,991.48
2018-05-15T05:11:17.897Z,991.46
2018-05-15T05:12:17.929Z,991.49
2018-05-15T05:13:17.963Z,991.49
2018-05-15T05:14:17.997Z,991.49
2018-05-15T05:15:18.030Z,991.53
2018-05-15T05:16:18.064Z,991.52
2018-05-15T05:17:18.098Z,991.56
2018-05-15T05:18:18.133Z,991.56
2018-05-15T05:19:18.165Z,991.58
2018-05-15T05:20:18.198Z,991.58
2018-05-15T05:21:18.236Z,991.57
2018-05-15T05:22:18.267Z,991.57
2018-05-15T05:23:18.299Z,991.56
2018-05-15T05:24:18.334Z,991.54
2018-05-15T05:25:18.369Z,991.55
2018-05-15T05:26:18.401Z,991.57
2018-05-15T05:27:18.435Z,991.57
2018-05-15T05:28:18.468Z,991.63
2018-05-15T05:29:18.502Z,991.63
2018-05-15T05:30:18.536Z,991.64
2018-05-15T05:31:18.570Z,991.67
2018-05-15T05:32:18.603Z,991.64
2018-05-15T05:33:18.691Z,991.62
2018-05-15T05:34:18.671Z,991.64
2018-05-15T05:35:18.708Z,991.61
2018-05-15T05:36:18.739Z,991.63
2018-05-15T05:37:18.772Z,991.59
2018-05-15T05:38:18.806Z,991.61
2018-05-15T05:39:18.841Z,991.62
2018-05-15T05:40:18.873Z,991.57
2018-05-15T05:41:18.906Z,991.63
2018-05-15T05:42:18.941Z,991.63
2018-05-15T05:43:18.975Z,991.67
2018-05-15T05:44:19.008Z,991.65
2018-05-15T05:45:19.042Z,991.68
2018-05-15T05:46:19.086Z,991.64
2018-05-15T05:47:19.114Z,991.68
2018-05-15T05:48:19.142Z,991.71
2018-05-15T05:49:19.177Z,991.72
2018-05-15T05:50:19.211Z,991.75
2018-05-15T05:51:19.244Z,991.74
2018-05-15T05:52:19.280Z,991.74
2018-05-15T05:53:19.311Z,991.76
2018-05-15T05:54:19.345Z,991.78
2018-05-15T05:55:19.379Z,991.74
2018-05-15T05:56:19.416Z,991.73
2018-05-15T05:57:19.447Z,991.81
2018-05-15T05:58:19.479Z,991.79
2018-05-15T05:59:19.516Z,991.79
2018-05-15T06:00:19.548Z,991.81
2018-05-15T06:01:19.582Z,991.81
2018-05-15T06:02:19.614Z,991.83
2018-05-15T06:03:19.651Z,991.83
2018-05-15T06:04:19.731Z,991.84
2018-05-15T06:05:19.717Z,991.85
2018-05-15T06:06:19.751Z,991.87
2018-05-15T06:07:19.828Z,991.84
2018-05-15T06:08:19.819Z,991.84
2018-05-15T06:09:19.854Z,991.84
2018-05-15T06:10:19.888Z,991.82
2018-05-15T06:11:19.921Z,991.81
2018-05-15T06:12:19.957Z,991.81
2018-05-15T06:13:19.990Z,991.78
2018-05-15T06:14:20.087Z,991.77
2018-05-15T06:15:20.060Z,991.76
2018-05-15T06:16:20.096Z,991.76
2018-05-15T06:17:20.128Z,991.77
2018-05-15T06:18:20.162Z,991.76
2018-05-15T06:19:20.197Z,991.76
2018-05-15T06:20:20.231Z,991.72
2018-05-15T06:21:20.345Z,991.78
2018-05-15T06:22:20.301Z,991.79
2018-05-15T06:23:20.335Z,991.74
2018-05-15T06:24:20.369Z,991.75
2018-05-15T06:25:20.404Z,991.77
2018-05-15T06:26:20.444Z,991.81
2018-05-15T06:27:20.475Z,991.79
2018-05-15T06:28:20.510Z,991.80
2018-05-15T06:29:20.542Z,991.81
2018-05-15T06:30:20.577Z,991.82
2018-05-15T06:31:20.612Z,991.79
2018-05-15T06:32:20.719Z,991.83
2018-05-15T06:33:20.680Z,991.81
2018-05-15T06:34:20.715Z,991.87
2018-05-15T06:35:20.751Z,991.84
2018-05-15T06:36:20.784Z,991.86
2018-05-15T06:37:20.820Z,991.89
2018-05-15T06:38:20.855Z,991.88
2018-05-15T06:39:20.889Z,991.84
2018-05-15T06:40:20.923Z,991.84
2018-05-15T06:41:20.957Z,991.88
2018-05-15T06:42:20.992Z,991.89
2018-05-15T06:43:21.026Z,991.85
2018-05-15T06:44:21.061Z,991.81
2018-05-15T06:45:21.096Z,991.88
2018-05-15T06:46:21.131Z,991.91
2018-05-15T06:47:21.165Z,991.87
2018-05-15T06:48:21.207Z,991.90
2018-05-15T06:49:21.235Z,991.92
2018-05-15T06:50:21.269Z,991.92
2018-05-15T06:51:21.304Z,991.93
2018-05-15T06:52:21.337Z,991.91
2018-05-15T06:53:21.373Z,991.92
2018-05-15T06:54:21.406Z,991.92
2018-05-15T06:55:21.443Z,991.94
2018-05-15T06:56:21.480Z,991.89
2018-05-15T06:57:21.511Z,991.90
2018-05-15T06:58:21.546Z,991.95
2018-05-15T06:59:21.581Z,991.97
2018-05-15T07:00:21.616Z,992.02
2018-05-15T07:01:21.650Z,992.03
2018-05-15T07:02:21.685Z,992.04
2018-05-15T07:03:21.720Z,992.06
2018-05-15T07:04:21.754Z,992.06
2018-05-15T07:05:21.789Z,992.06
2018-05-15T07:06:21.823Z,992.01
2018-05-15T07:07:21.859Z,992.04
2018-05-15T07:08:21.893Z,992.00
2018-05-15T07:09:21.928Z,992.03
2018-05-15T07:10:21.963Z,992.03
2018-05-15T07:11:21.998Z,992.02
2018-05-15T07:12:22.032Z,992.05
2018-05-15T07:13:22.070Z,992.06
2018-05-15T07:14:22.102Z,992.05
2018-05-15T07:15:22.138Z,992.06
2018-05-15T07:16:22.171Z,992.08
2018-05-15T07:17:22.207Z,992.06
2018-05-15T07:18:22.245Z,992.08
2018-05-15T07:19:22.318Z,992.09
2018-05-15T07:20:22.310Z,992.10
2018-05-15T07:21:22.344Z,992.08
2018-05-15T07:22:22.381Z,992.09
2018-05-15T07:23:22.416Z,992.07
2018-05-15T07:24:22.450Z,992.09
2018-05-15T07:25:22.485Z,992.05
2018-05-15T07:26:22.520Z,992.09
2018-05-15T07:27:22.593Z,992.10
2018-05-15T07:28:22.590Z,992.08
2018-05-15T07:29:22.630Z,992.09
2018-05-15T07:30:22.658Z,992.06
2018-05-15T07:31:22.695Z,992.08
2018-05-15T07:32:22.728Z,992.10
2018-05-15T07:33:22.766Z,992.14
2018-05-15T07:34:22.799Z,992.10
2018-05-15T07:35:22.838Z,992.13
2018-05-15T07:36:22.868Z,992.12
2018-05-15T07:37:22.903Z,992.16
2018-05-15T07:38:22.938Z,992.17
2018-05-15T07:39:22.975Z,992.17
2018-05-15T07:40:23.054Z,992.16
2018-05-15T07:41:23.043Z,992.16
2018-05-15T07:42:23.079Z,992.20
2018-05-15T07:43:23.114Z,992.20
2018-05-15T07:44:23.147Z,992.21
2018-05-15T07:45:23.184Z,992.25
2018-05-15T07:46:23.219Z,992.30
2018-05-15T07:47:23.254Z,992.29
2018-05-15T07:48:23.288Z,992.31
2018-05-15T07:49:23.326Z,992.32
2018-05-15T07:50:23.364Z,992.32
2018-05-15T07:51:23.396Z,992.34
2018-05-15T07:52:23.430Z,992.36
2018-05-15T07:53:23.465Z,992.40
2018-05-15T07:54:23.501Z,992.33
2018-05-15T07:55:23.537Z,992.34
2018-05-15T07:56:23.571Z,992.35
2018-05-15T07:57:23.607Z,992.34
2018-05-15T07:58:23.643Z,992.35
2018-05-15T07:59:23.679Z,992.34
2018-05-15T08:00:23.713Z,992.36
2018-05-15T08:01:23.751Z,992.35
2018-05-15T08:02:23.784Z,992.40
2018-05-15T08:03:23.822Z,992.40
2018-05-15T08:04:23.860Z,992.40
2018-05-15T08:05:23.892Z,992.38
2018-05-15T08:06:23.928Z,992.38
2018-05-15T08:07:23.966Z,992.40
2018-05-15T08:08:24.000Z,992.42
2018-05-15T08:09:24.036Z,992.42
2018-05-15T08:10:24.074Z,992.45
2018-05-15T08:11:24.109Z,992.43
2018-05-15T08:12:24.143Z,992.48
2018-05-15T08:13:24.186Z,992.44
2018-05-15T08:14:24.215Z,992.48
2018-05-15T08:15:24.252Z,992.47
2018-05-15T08:16:24.290Z,992.44
2018-05-15T08:17:24.321Z,992.43
2018-05-15T08:18:24.361Z,992.51
2018-05-15T08:19:24.397Z,992.49
2018-05-15T08:20:24.430Z,992.51
2018-05-15T08:21:24.466Z,992.53
2018-05-15T08:22:24.588Z,992.51
2018-05-15T08:23:24.540Z,992.57
2018-05-15T08:24:24.578Z,992.59
2018-05-15T08:25:24.609Z,992.58
2018-05-15T08:26:24.645Z,992.58
2018-05-15T08:27:24.681Z,992.54
2018-05-15T08:28:24.719Z,992.56
2018-05-15T08:29:24.755Z,992.52
2018-05-15T08:30:24.788Z,992.55
2018-05-15T08:31:24.822Z,992.56
2018-05-15T08:32:24.857Z,992.58
2018-05-15T08:33:24.893Z,992.57
2018-05-15T08:34:24.929Z,992.59
2018-05-15T08:35:24.966Z,992.57
2018-05-15T08:36:25.001Z,992.60
2018-05-15T08:37:25.125Z,992.62
2018-05-15T08:38:25.073Z,992.66
2018-05-15T08:39:25.109Z,992.68
2018-05-15T08:40:25.144Z,992.67
2018-05-15T08:41:25.189Z,992.70
2018-05-15T08:42:25.217Z,992.73
2018-05-15T08:43:25.253Z,992.72
2018-05-15T08:44:25.349Z,992.73
2018-05-15T08:45:25.374Z,992.69
2018-05-15T08:46:25.362Z,992.71
2018-05-15T08:47:25.398Z,992.69
2018-05-15T08:48:25.433Z,992.74
2018-05-15T08:49:25.484Z,992.75
2018-05-15T08:50:25.506Z,992.75
2018-05-15T08:51:25.604Z,992.80
2018-05-15T08:52:25.578Z,992.78
2018-05-15T08:53:25.615Z,992.82
2018-05-15T08:54:25.651Z,992.83
2018-05-15T08:55:25.688Z,992.81
2018-05-15T08:56:25.722Z,992.85
2018-05-15T08:57:25.759Z,992.83
2018-05-15T08:58:25.795Z,992.87
2018-05-15T08:59:25.832Z,992.85
2018-05-15T09:00:25.867Z,992.77
2018-05-15T09:01:25.903Z,992.83
2018-05-15T09:02:25.940Z,992.80
2018-05-15T09:03:25.977Z,992.86
2018-05-15T09:04:26.015Z,992.89
2018-05-15T09:05:26.048Z,992.94
2018-05-15T09:06:26.084Z,992.99
2018-05-15T09:07:26.122Z,993.00
2018-05-15T09:08:26.157Z,993.04
2018-05-15T09:09:26.196Z,992.99
2018-05-15T09:10:26.231Z,992.98
2018-05-15T09:11:26.269Z,992.90
2018-05-15T09:12:26.304Z,992.91
2018-05-15T09:13:26.342Z,992.91
2018-05-15T09:14:26.379Z,992.88
2018-05-15T09:15:26.418Z,992.84
2018-05-15T09:16:26.454Z,992.86
2018-05-15T09:17:26.491Z,992.86
2018-05-15T09:18:26.529Z,992.91
2018-05-15T09:19:26.567Z,992.94
2018-05-15T09:20:26.604Z,992.93
2018-05-15T09:21:26.641Z,992.93
2018-05-15T09:22:26.679Z,992.93
2018-05-15T09:23:26.719Z,992.92
2018-05-15T09:24:26.754Z,992.92
2018-05-15T09:25:26.792Z,992.91
2018-05-15T09:26:26.830Z,992.90
2018-05-15T09:27:26.872Z,992.89
2018-05-15T09:28:26.906Z,992.85
2018-05-15T09:29:27.044Z,992.88
2018-05-15T09:30:26.988Z,992.86
2018-05-15T09:31:27.020Z,992.88
2018-05-15T09:32:27.055Z,992.90
2018-05-15T09:33:27.099Z,992.86
2018-05-15T09:34:27.133Z,992.89
2018-05-15T09:35:27.171Z,992.92
2018-05-15T09:36:27.247Z,992.95
2018-05-15T09:37:27.244Z,993.00
2018-05-15T09:38:27.282Z,993.05
2018-05-15T09:39:27.320Z,993.08
2018-05-15T09:40:27.356Z,993.03
2018-05-15T09:41:27.395Z,993.04
2018-05-15T09:42:27.434Z,993.04
2018-05-15T09:43:27.472Z,993.02
2018-05-15T09:44:27.508Z,993.11
2018-05-15T09:45:27.545Z,993.09
2018-05-15T09:46:27.583Z,993.16
2018-05-15T09:47:27.622Z,993.23
2018-05-15T09:48:27.659Z,993.30
2018-05-15T09:49:27.697Z,993.33
2018-05-15T09:50:27.734Z,993.32
2018-05-15T09:51:30.394Z,993.27
2018-05-15T09:52:27.809Z,993.38
2018-05-15T09:53:27.865Z,993.27
2018-05-15T09:54:27.890Z,993.17
2018-05-15T09:55:27.925Z,993.15
2018-05-15T09:56:27.966Z,993.06
2018-05-15T09:57:28.003Z,993.00
2018-05-15T09:58:28.043Z,993.06
2018-05-15T09:59:28.082Z,993.11
2018-05-15T10:00:28.121Z,993.11
2018-05-15T10:01:28.160Z,993.08
2018-05-15T10:02:28.200Z,993.05
2018-05-15T10:03:28.243Z,993.00
2018-05-15T10:04:28.279Z,993.12
2018-05-15T10:05:28.319Z,993.19
2018-05-15T10:06:28.360Z,993.10
2018-05-15T10:07:28.401Z,993.03
2018-05-15T10:08:28.439Z,992.94
2018-05-15T10:09:28.484Z,992.92
2018-05-15T10:10:28.524Z,993.02
2018-05-15T10:11:28.567Z,993.00
2018-05-15T10:12:28.602Z,992.86
2018-05-15T10:13:28.645Z,992.83
2018-05-15T10:14:28.685Z,992.97
2018-05-15T10:15:28.726Z,992.92
2018-05-15T10:16:28.766Z,992.85
2018-05-15T10:17:28.808Z,992.86
2018-05-15T10:18:28.850Z,992.91
2018-05-15T10:19:28.890Z,993.00
2018-05-15T10:20:28.931Z,993.06
2018-05-15T10:24:29.521Z,993.01
2018-05-15T10:25:29.136Z,993.18
2018-05-15T10:26:29.200Z,993.02
2018-05-15T10:27:29.219Z,992.99
2018-05-15T10:28:29.259Z,992.99
2018-05-15T10:29:29.301Z,993.27
2018-05-15T10:30:29.342Z,993.04
2018-05-15T10:31:29.387Z,992.99
2018-05-15T10:32:29.425Z,993.32
2018-05-15T10:33:29.468Z,993.21
2018-05-15T10:34:29.508Z,993.04
2018-05-15T10:36:29.609Z,993.61
2018-05-15T10:37:29.631Z,993.28
2018-05-15T10:38:29.696Z,993.45
2018-05-15T10:39:29.719Z,993.67
2018-05-15T10:40:29.757Z,993.20
2018-05-15T10:41:29.799Z,993.55
2018-05-15T10:42:29.841Z,993.45
2018-05-15T10:43:29.888Z,993.49
2018-05-15T10:44:30.146Z,993.63
2018-05-15T10:47:30.060Z,993.33
2018-05-15T10:48:30.100Z,993.41
2018-05-15T10:49:30.149Z,993.49
2018-05-15T10:50:30.190Z,993.48
2018-05-15T10:51:30.234Z,993.29
2018-05-15T10:52:30.278Z,993.40
2018-05-15T10:53:30.326Z,993.52
2018-05-15T10:54:30.368Z,993.79
2018-05-15T10:55:30.413Z,993.66
2018-05-15T10:56:30.456Z,993.58
2018-05-15T10:57:30.502Z,993.78
2018-05-15T10:58:30.550Z,993.76
2018-05-15T10:59:30.610Z,993.62
2018-05-15T11:00:30.638Z,993.38
2018-05-15T11:01:30.684Z,993.39
2018-05-15T11:02:30.735Z,993.69
2018-05-15T11:03:30.776Z,993.40
2018-05-15T11:04:30.822Z,993.35
2018-05-15T11:05:30.869Z,993.37
2018-05-15T11:06:31.365Z,993.40
2018-05-15T11:07:30.962Z,992.90
2018-05-15T11:08:31.034Z,992.82
2018-05-15T11:09:31.057Z,992.81
2018-05-15T11:10:31.124Z,993.05
2018-05-15T11:11:31.368Z,993.63
2018-05-15T11:12:31.417Z,993.79
2018-05-15T11:13:31.245Z,993.36
2018-05-15T11:14:31.284Z,993.98
2018-05-15T11:15:31.337Z,993.96
2018-05-15T11:16:31.375Z,993.68
2018-05-15T11:17:31.427Z,993.56
2018-05-15T11:18:31.470Z,993.52
2018-05-15T11:19:31.517Z,993.77
2018-05-15T11:20:31.565Z,993.89
2018-05-15T11:21:31.613Z,993.85
2018-05-15T11:22:31.660Z,993.76
2018-05-15T11:23:31.709Z,993.41
2018-05-15T11:24:31.848Z,993.50
2018-05-15T11:25:31.806Z,993.79
2018-05-15T11:26:31.854Z,993.47
2018-05-15T11:27:31.904Z,993.58
2018-05-15T11:28:31.953Z,993.54
2018-05-15T11:29:32.003Z,993.48
2018-05-15T11:30:32.147Z,993.58
2018-05-15T11:31:32.102Z,993.51
2018-05-15T11:32:32.150Z,993.58
2018-05-15T11:33:32.200Z,993.59
2018-05-15T11:34:32.252Z,993.78
2018-05-15T11:35:32.302Z,993.87
2018-05-15T11:36:32.350Z,993.13
2018-05-15T11:37:32.400Z,992.79
2018-05-15T11:38:32.450Z,992.73
2018-05-15T11:39:32.500Z,993.79
2018-05-15T11:40:32.548Z,993.77
2018-05-15T11:41:32.638Z,994.02
2018-05-15T11:42:32.648Z,993.88
2018-05-15T11:43:32.698Z,993.11
2018-05-15T11:44:32.802Z,994.02
2018-05-15T11:45:32.803Z,994.07
2018-05-15T11:46:32.847Z,994.05
2018-05-15T11:47:32.956Z,994.00
2018-05-15T11:48:33.347Z,993.93
2018-05-15T11:49:33.229Z,993.92
2018-05-15T11:50:34.046Z,993.86
2018-05-15T11:51:33.943Z,993.82
2018-05-15T11:52:33.545Z,993.92
2018-05-15T11:53:33.205Z,993.83
2018-05-15T11:54:33.255Z,993.92
2018-05-15T11:55:35.295Z,993.87
2018-05-15T11:56:33.449Z,993.72
2018-05-15T11:57:33.407Z,992.77
2018-05-15T11:58:33.459Z,992.68
2018-05-15T11:59:33.512Z,992.66
2018-05-15T12:00:33.568Z,992.65
2018-05-15T12:01:33.614Z,992.50
2018-05-15T12:02:33.737Z,992.58
2018-05-15T12:03:33.716Z,992.57
2018-05-15T12:04:33.765Z,992.66
2018-05-15T12:05:33.814Z,993.22
2018-05-15T12:06:33.950Z,993.56
2018-05-15T12:07:33.912Z,993.62
2018-05-15T12:08:33.960Z,993.09
2018-05-15T12:09:34.011Z,992.86
2018-05-15T12:10:34.123Z,993.23
2018-05-15T12:11:34.157Z,993.67
2018-05-15T12:12:34.155Z,992.94
2018-05-15T12:13:34.202Z,993.87
2018-05-15T12:14:34.250Z,992.85
2018-05-15T12:15:34.297Z,992.76
2018-05-15T12:16:34.344Z,993.71
2018-05-15T12:17:34.391Z,993.88
2018-05-15T12:18:34.479Z,993.67
2018-05-15T12:19:34.488Z,993.37
2018-05-15T12:20:34.534Z,993.26
2018-05-15T12:21:34.582Z,993.61
2018-05-15T12:22:34.630Z,993.68
2018-05-15T12:23:34.679Z,992.60
2018-05-15T12:24:34.826Z,993.09
2018-05-15T12:25:34.774Z,993.20
2018-05-15T12:26:34.823Z,993.83
2018-05-15T12:27:34.871Z,994.07
2018-05-15T12:28:34.918Z,994.01
2018-05-15T12:29:34.967Z,993.89
2018-05-15T12:30:35.016Z,993.74
2018-05-15T12:31:35.070Z,993.76
2018-05-15T12:32:35.113Z,993.92
2018-05-15T12:33:35.164Z,993.92
2018-05-15T12:34:35.212Z,992.95